Terminal Aerodrome Forecast
Issued by NWS Memphis, TN

Home | Current Version | Previous Version | Text Only | Print | Product List | Glossary On
Versions: 1 2 3 4 5 6 7 8 9 10 11 12 13 14 15
000
FTUS44 KMEG 290530
TAFJBR
TAF
KJBR 290530Z 2906/3006 VRB03KT P6SM SKC
     FM291200 06006KT P6SM FEW030 BKN150
     FM291600 08006KT P6SM VCTS BKN050CB BKN120
      TEMPO 2916/2920 5SM -TSRA OVC020CB
     FM300100 10008KT 6SM -TSRA BR OVC050CB=

USA.gov is the U.S. government's official web portal to all federal, state and local government web resources and services.